createdAt,value
2019-04-25T00:02:08.019Z,94.60
2019-04-25T00:04:38.710Z,94.60
2019-04-25T00:07:08.712Z,94.50
2019-04-25T00:09:42.754Z,94.40
2019-04-25T00:12:12.671Z,94.40
2019-04-25T00:14:42.524Z,94.50
2019-04-25T00:17:12.209Z,94.60
2019-04-25T00:19:42.469Z,94.80
2019-04-25T00:22:27.923Z,94.70
2019-04-25T00:25:17.728Z,94.70
2019-04-25T00:27:46.316Z,94.80
2019-04-25T00:30:16.456Z,94.80
2019-04-25T00:32:46.170Z,94.80
2019-04-25T00:35:15.466Z,94.80
2019-04-25T00:37:45.483Z,94.90
2019-04-25T00:40:15.738Z,94.70
2019-04-25T00:42:45.027Z,94.60
2019-04-25T00:45:14.594Z,94.70
2019-04-25T00:47:44.713Z,94.70
2019-04-25T00:50:14.312Z,94.70
2019-04-25T00:52:44.853Z,94.70
2019-04-25T00:55:25.914Z,94.80
2019-04-25T00:57:46.958Z,94.80
2019-04-25T01:00:41.595Z,94.70
2019-04-25T01:03:15.751Z,95.00
2019-04-25T01:05:45.758Z,94.90
2019-04-25T01:08:15.326Z,94.50
2019-04-25T01:10:45.854Z,94.60
2019-04-25T01:13:15.207Z,94.50
2019-04-25T01:15:44.950Z,94.60
2019-04-25T01:18:15.510Z,94.60
2019-04-25T01:20:45.501Z,94.60
2019-04-25T01:23:14.943Z,94.60
2019-04-25T01:25:45.891Z,94.60
2019-04-25T01:28:15.518Z,94.70
2019-04-25T01:30:46.291Z,94.50
2019-04-25T01:33:16.159Z,94.40
2019-04-25T01:36:00.685Z,94.20
2019-04-25T01:38:36.814Z,93.90
2019-04-25T01:41:28.347Z,94.00
2019-04-25T01:44:01.000Z,93.90
2019-04-25T01:46:30.372Z,94.00
2019-04-25T01:49:01.736Z,94.00
2019-04-25T01:51:31.026Z,94.10
2019-04-25T01:54:00.580Z,94.20
2019-04-25T01:56:30.343Z,94.30
2019-04-25T01:58:59.610Z,94.20
2019-04-25T02:01:30.087Z,94.30
2019-04-25T02:03:59.939Z,94.20
2019-04-25T02:06:29.701Z,94.10
2019-04-25T02:08:59.496Z,94.00
2019-04-25T02:11:40.919Z,93.90
2019-04-25T02:14:10.174Z,93.70
2019-04-25T02:16:39.478Z,93.70
2019-04-25T02:19:09.572Z,93.60
2019-04-25T02:21:39.314Z,93.50
2019-04-25T02:24:08.696Z,93.60
2019-04-25T02:26:37.985Z,93.60
2019-04-25T02:29:07.815Z,93.30
2019-04-25T02:31:37.076Z,93.40
2019-04-25T02:34:08.608Z,93.50
2019-04-25T02:36:37.945Z,93.40
2019-04-25T02:39:17.800Z,93.20
2019-04-25T02:41:47.550Z,93.30
2019-04-25T02:44:17.264Z,93.30
2019-04-25T02:47:00.999Z,93.60
2019-04-25T02:49:48.206Z,93.20
2019-04-25T02:52:38.656Z,93.10
2019-04-25T02:55:10.613Z,93.20
2019-04-25T02:57:39.257Z,93.40
2019-04-25T03:00:11.039Z,93.40
2019-04-25T03:02:40.390Z,93.30
2019-04-25T03:05:10.079Z,93.20
2019-04-25T03:07:39.899Z,93.30
2019-04-25T03:10:11.463Z,93.30
2019-04-25T03:12:40.762Z,93.30
2019-04-25T03:15:10.695Z,93.60
2019-04-25T03:17:40.709Z,93.20
2019-04-25T03:20:35.539Z,93.10
2019-04-25T03:23:24.955Z,93.20
2019-04-25T03:25:54.473Z,93.20
2019-04-25T03:28:24.523Z,93.20
2019-04-25T03:30:54.955Z,93.20
2019-04-25T03:33:25.916Z,93.30
2019-04-25T03:35:55.396Z,93.20
2019-04-25T03:38:24.742Z,93.10
2019-04-25T03:40:54.240Z,93.10
2019-04-25T03:43:23.503Z,93.10
2019-04-25T03:45:53.568Z,93.00
2019-04-25T03:48:25.062Z,93.10
2019-04-25T03:50:54.085Z,93.00
2019-04-25T03:53:23.975Z,92.90
2019-04-25T03:55:55.727Z,92.80
2019-04-25T03:58:25.256Z,92.70
2019-04-25T04:00:57.591Z,92.80
2019-04-25T04:03:26.878Z,92.70
2019-04-25T04:05:56.812Z,93.00
2019-04-25T04:08:26.155Z,92.80
2019-04-25T04:10:55.724Z,92.90
2019-04-25T04:13:25.249Z,93.00
2019-04-25T04:15:54.628Z,92.80
2019-04-25T04:18:34.422Z,92.60
2019-04-25T04:21:28.890Z,92.60
2019-04-25T04:24:05.301Z,92.80
2019-04-25T04:26:35.532Z,92.60
2019-04-25T04:29:05.796Z,92.40
2019-04-25T04:31:36.782Z,92.40
2019-04-25T04:34:07.091Z,92.40
2019-04-25T04:36:36.676Z,92.20
2019-04-25T04:39:08.744Z,92.10
2019-04-25T04:41:38.373Z,92.10
2019-04-25T04:44:09.951Z,91.90
2019-04-25T04:46:39.663Z,91.70
2019-04-25T04:49:10.192Z,91.80
2019-04-25T04:51:39.929Z,91.70
2019-04-25T04:54:09.561Z,91.80
2019-04-25T04:56:39.834Z,91.80
2019-04-25T04:59:10.820Z,91.30
2019-04-25T05:01:58.493Z,91.20
2019-04-25T05:04:33.458Z,91.00
2019-04-25T05:07:33.825Z,91.10
2019-04-25T05:10:03.388Z,91.00
2019-04-25T05:12:33.913Z,90.90
2019-04-25T05:15:03.762Z,90.70
2019-04-25T05:17:34.255Z,90.60
2019-04-25T05:20:03.687Z,90.40
2019-04-25T05:22:33.379Z,90.40
2019-04-25T05:25:03.508Z,90.50
2019-04-25T05:27:46.292Z,90.30
2019-04-25T05:30:04.747Z,90.10
2019-04-25T05:32:34.422Z,90.00
2019-04-25T05:35:03.769Z,89.20
2019-04-25T05:37:33.604Z,88.60
2019-04-25T05:40:03.709Z,88.50
2019-04-25T05:42:58.440Z,87.90
2019-04-25T05:45:29.204Z,87.90
2019-04-25T05:47:58.731Z,88.40
2019-04-25T05:50:28.002Z,87.20
2019-04-25T05:52:57.645Z,86.70
2019-04-25T05:55:27.236Z,86.50
2019-04-25T05:57:56.511Z,86.10
2019-04-25T06:00:26.037Z,86.00
2019-04-25T06:02:56.420Z,85.60
2019-04-25T06:05:26.464Z,85.40
2019-04-25T06:07:56.653Z,84.60
2019-04-25T06:10:45.228Z,84.60
2019-04-25T06:13:39.384Z,84.10
2019-04-25T06:16:31.178Z,83.00
2019-04-25T06:19:14.249Z,81.60
2019-04-25T06:21:43.380Z,79.20
2019-04-25T06:24:25.762Z,79.00
2019-04-25T06:27:24.321Z,79.00
2019-04-25T06:30:01.712Z,76.80
2019-04-25T06:32:31.255Z,76.50
2019-04-25T06:35:00.576Z,75.20
2019-04-25T06:37:30.116Z,74.00
2019-04-25T06:39:59.507Z,73.50
2019-04-25T06:42:29.542Z,72.90
2019-04-25T06:45:25.300Z,73.40
2019-04-25T06:48:24.674Z,73.20
2019-04-25T06:50:54.351Z,73.00
2019-04-25T06:53:25.731Z,73.20
2019-04-25T06:55:55.154Z,73.00
2019-04-25T06:58:26.900Z,72.80
2019-04-25T07:01:00.594Z,72.80
2019-04-25T07:03:27.085Z,72.00
2019-04-25T07:05:56.744Z,72.30
2019-04-25T07:08:26.921Z,71.20
2019-04-25T07:10:57.081Z,71.70
2019-04-25T07:13:27.041Z,71.00
2019-04-25T07:15:56.408Z,69.40
2019-04-25T07:18:30.524Z,68.50
2019-04-25T07:20:56.739Z,68.10
2019-04-25T07:23:26.287Z,66.50
2019-04-25T07:26:08.447Z,65.60
2019-04-25T07:28:55.346Z,64.90
2019-04-25T07:31:37.027Z,65.70
2019-04-25T07:34:18.932Z,64.10
2019-04-25T07:36:48.322Z,65.10
2019-04-25T07:39:17.700Z,64.00
2019-04-25T07:41:47.486Z,63.10
2019-04-25T07:44:17.203Z,61.20
2019-04-25T07:46:46.984Z,61.10
2019-04-25T07:49:16.846Z,59.70
2019-04-25T07:51:46.160Z,59.50
2019-04-25T07:54:15.755Z,58.60
2019-04-25T07:56:45.030Z,58.50
2019-04-25T07:59:14.595Z,58.30
2019-04-25T08:01:44.147Z,58.60
2019-04-25T08:04:13.836Z,59.10
2019-04-25T08:06:44.523Z,59.80
2019-04-25T08:09:15.695Z,59.20
2019-04-25T08:11:45.202Z,59.20
2019-04-25T08:14:34.214Z,57.90
2019-04-25T08:17:05.334Z,58.10
2019-04-25T08:19:35.597Z,57.70
2019-04-25T08:22:05.560Z,57.40
2019-04-25T08:24:37.205Z,57.40
2019-04-25T08:27:06.950Z,57.60
2019-04-25T08:29:38.005Z,57.90
2019-04-25T08:32:07.504Z,57.00
2019-04-25T08:34:37.335Z,57.60
2019-04-25T08:37:17.590Z,57.00
2019-04-25T08:39:38.853Z,56.50
2019-04-25T08:42:08.998Z,55.20
2019-04-25T08:44:39.235Z,55.10
2019-04-25T08:47:08.616Z,55.30
2019-04-25T08:49:49.388Z,54.90
2019-04-25T08:52:18.227Z,55.60
2019-04-25T08:55:06.456Z,56.10
2019-04-25T08:57:53.855Z,56.40
2019-04-25T09:01:00.819Z,56.60
2019-04-25T09:03:28.287Z,56.30
2019-04-25T09:05:57.581Z,56.40
2019-04-25T09:08:27.615Z,56.10
2019-04-25T09:10:57.507Z,56.00
2019-04-25T09:13:27.443Z,56.10
2019-04-25T09:15:56.796Z,56.40
2019-04-25T09:18:26.459Z,56.50
2019-04-25T09:20:55.748Z,57.00
2019-04-25T09:23:25.309Z,57.10
2019-04-25T09:25:54.701Z,56.90
2019-04-25T09:28:23.986Z,57.90
2019-04-25T09:30:54.031Z,56.00
2019-04-25T09:33:23.425Z,55.20
2019-04-25T09:35:54.062Z,54.80
2019-04-25T09:38:24.405Z,53.50
2019-04-25T09:40:54.191Z,53.20
2019-04-25T09:43:24.063Z,53.50
2019-04-25T09:46:03.233Z,53.00
2019-04-25T09:48:44.623Z,52.80
2019-04-25T09:51:30.148Z,52.10
2019-04-25T09:54:17.363Z,50.00
2019-04-25T09:56:48.915Z,50.00
2019-04-25T09:59:27.943Z,49.30
2019-04-25T10:01:54.512Z,47.70
2019-04-25T10:04:23.840Z,48.50
2019-04-25T10:06:53.619Z,48.70
2019-04-25T10:09:23.803Z,48.30
2019-04-25T10:11:55.212Z,48.50
2019-04-25T10:14:54.483Z,48.30
2019-04-25T10:17:24.012Z,48.20
2019-04-25T10:19:53.571Z,48.30
2019-04-25T10:22:23.724Z,48.70
2019-04-25T10:25:00.197Z,47.80
2019-04-25T10:27:24.297Z,47.80
2019-04-25T10:29:57.058Z,47.80
2019-04-25T10:32:24.987Z,47.00
2019-04-25T10:34:54.290Z,46.90
2019-04-25T10:37:31.368Z,47.20
2019-04-25T10:40:00.943Z,46.80
2019-04-25T10:42:30.581Z,46.80
2019-04-25T10:45:00.148Z,44.40
2019-04-25T10:47:30.062Z,43.60
2019-04-25T10:49:59.635Z,44.50
2019-04-25T10:52:28.973Z,43.60
2019-04-25T10:54:58.520Z,43.90
2019-04-25T10:57:28.391Z,44.40
2019-04-25T11:00:06.144Z,44.90
2019-04-25T11:02:30.099Z,43.30
2019-04-25T11:05:08.941Z,42.00
2019-04-25T11:07:38.266Z,42.20
2019-04-25T11:10:07.871Z,41.90
2019-04-25T11:12:37.429Z,41.20
2019-04-25T11:15:07.618Z,41.30
2019-04-25T11:17:36.964Z,40.70
2019-04-25T11:20:06.760Z,41.20
2019-04-25T11:22:36.156Z,40.50
2019-04-25T11:25:05.769Z,40.20
2019-04-25T11:27:37.306Z,41.10
2019-04-25T11:30:11.420Z,40.30
2019-04-25T11:32:39.839Z,40.80
2019-04-25T11:35:09.560Z,40.60
2019-04-25T11:37:38.863Z,40.20
2019-04-25T11:40:15.028Z,41.00
2019-04-25T11:42:45.975Z,39.90
2019-04-25T11:45:16.004Z,39.80
2019-04-25T11:47:46.235Z,40.20
2019-04-25T11:50:16.688Z,40.70
2019-04-25T11:52:49.246Z,40.50
2019-04-25T11:55:20.016Z,40.30
2019-04-25T11:57:51.297Z,39.80
2019-04-25T12:00:24.552Z,39.60
2019-04-25T12:02:54.948Z,38.50
2019-04-25T12:05:25.089Z,38.20
2019-04-25T12:07:54.724Z,38.20
2019-04-25T12:10:24.642Z,38.40
2019-04-25T12:12:53.961Z,37.90
2019-04-25T12:15:24.098Z,38.10
2019-04-25T12:17:54.740Z,38.70
2019-04-25T12:20:25.204Z,38.70
2019-04-25T12:23:05.951Z,38.30
2019-04-25T12:25:25.502Z,38.40
2019-04-25T12:27:54.829Z,38.10
2019-04-25T12:30:36.369Z,37.90
2019-04-25T12:32:55.398Z,37.70
2019-04-25T12:35:24.798Z,37.30
2019-04-25T12:37:55.171Z,37.50
2019-04-25T12:40:25.104Z,37.70
2019-04-25T12:42:54.742Z,38.00
2019-04-25T12:45:43.393Z,37.70
2019-04-25T12:48:14.523Z,37.70
2019-04-25T12:50:44.465Z,37.70
2019-04-25T12:53:14.284Z,38.00
2019-04-25T12:55:44.297Z,37.80
2019-04-25T12:58:13.799Z,36.70
2019-04-25T13:00:49.429Z,35.90
2019-04-25T13:03:14.698Z,36.40
2019-04-25T13:05:44.338Z,36.30
2019-04-25T13:08:14.563Z,35.80
2019-04-25T13:10:44.485Z,35.60
2019-04-25T13:13:15.397Z,35.80
2019-04-25T13:15:46.087Z,35.70
2019-04-25T13:18:15.752Z,36.60
2019-04-25T13:20:45.048Z,36.70
2019-04-25T13:23:15.189Z,36.30
2019-04-25T13:25:44.949Z,36.20
2019-04-25T13:28:34.172Z,36.80
2019-04-25T13:31:19.392Z,35.70
2019-04-25T13:33:54.543Z,36.10
2019-04-25T13:36:24.168Z,35.30
2019-04-25T13:38:54.039Z,35.40
2019-04-25T13:41:27.515Z,34.90
2019-04-25T13:43:57.681Z,34.60
2019-04-25T13:46:29.071Z,34.00
2019-04-25T13:48:58.399Z,34.10
2019-04-25T13:51:30.770Z,33.70
2019-04-25T13:54:04.724Z,33.20
2019-04-25T13:56:31.381Z,33.90
2019-04-25T13:59:04.206Z,33.30
2019-04-25T14:01:35.533Z,33.70
2019-04-25T14:04:06.430Z,34.00
2019-04-25T14:06:38.315Z,34.00
2019-04-25T14:09:13.300Z,33.60
2019-04-25T14:11:47.849Z,33.80
2019-04-25T14:14:14.620Z,34.00
2019-04-25T14:16:54.671Z,33.70
2019-04-25T14:19:42.191Z,34.50
2019-04-25T14:22:13.887Z,34.80
2019-04-25T14:24:45.780Z,34.60
2019-04-25T14:27:18.917Z,34.70
2019-04-25T14:29:49.944Z,34.60
2019-04-25T14:32:24.219Z,34.50
2019-04-25T14:34:54.488Z,34.70
2019-04-25T14:37:29.332Z,35.50
2019-04-25T14:39:59.519Z,36.10
2019-04-25T14:42:33.133Z,36.30
2019-04-25T14:45:07.842Z,36.20
2019-04-25T14:47:43.348Z,36.20
2019-04-25T14:50:12.868Z,36.60
2019-04-25T14:52:42.490Z,36.90
2019-04-25T14:55:31.637Z,36.90
2019-04-25T14:58:02.579Z,37.00
2019-04-25T15:00:37.266Z,37.40
2019-04-25T15:03:07.127Z,37.60
2019-04-25T15:05:37.331Z,37.30
2019-04-25T15:08:07.220Z,37.20
2019-04-25T15:10:36.895Z,37.40
2019-04-25T15:13:07.615Z,37.70
2019-04-25T15:15:36.912Z,37.90
2019-04-25T15:18:06.534Z,38.10
2019-04-25T15:20:35.816Z,38.80
2019-04-25T15:23:05.304Z,38.50
2019-04-25T15:25:34.605Z,37.70
2019-04-25T15:28:03.891Z,37.50
2019-04-25T15:30:34.692Z,37.80
2019-04-25T15:33:04.537Z,38.20
2019-04-25T15:35:40.389Z,38.00
2019-04-25T15:38:14.024Z,38.50
2019-04-25T15:40:56.731Z,38.70
2019-04-25T15:43:33.437Z,39.10
2019-04-25T15:46:37.543Z,39.50
2019-04-25T15:49:07.211Z,39.40
2019-04-25T15:51:37.633Z,40.20
2019-04-25T15:54:07.661Z,40.60
2019-04-25T15:56:36.991Z,40.90
2019-04-25T15:59:06.546Z,41.00
2019-04-25T16:01:36.664Z,41.00
2019-04-25T16:04:06.235Z,41.10
2019-04-25T16:06:36.358Z,41.20
2019-04-25T16:09:06.950Z,41.30
2019-04-25T16:11:36.279Z,40.80
2019-04-25T16:14:05.880Z,40.70
2019-04-25T16:16:35.945Z,41.20
2019-04-25T16:19:05.702Z,40.50
2019-04-25T16:21:35.513Z,40.30
2019-04-25T16:24:05.686Z,40.30
2019-04-25T16:26:35.674Z,40.40
2019-04-25T16:29:05.469Z,40.00
2019-04-25T16:31:35.096Z,37.20
2019-04-25T16:34:04.384Z,38.20
2019-04-25T16:36:34.034Z,38.20
2019-04-25T16:39:04.943Z,38.30
2019-04-25T16:41:34.328Z,38.60
2019-04-25T16:44:08.570Z,39.40
2019-04-25T16:46:39.215Z,40.60
2019-04-25T16:49:08.711Z,40.30
2019-04-25T16:51:38.167Z,40.70
2019-04-25T16:54:07.807Z,41.00
2019-04-25T16:56:37.352Z,41.50
2019-04-25T16:59:06.656Z,41.90
2019-04-25T17:01:36.061Z,42.00
2019-04-25T17:04:05.563Z,42.20
2019-04-25T17:06:35.938Z,42.30
2019-04-25T17:09:06.411Z,42.90
2019-04-25T17:11:35.968Z,43.30
2019-04-25T17:14:22.772Z,43.70
2019-04-25T17:17:12.360Z,44.00
2019-04-25T17:19:49.752Z,44.90
2019-04-25T17:22:19.551Z,45.30
2019-04-25T17:24:48.934Z,45.80
2019-04-25T17:27:18.673Z,46.10
2019-04-25T17:29:48.308Z,46.30
2019-04-25T17:32:49.484Z,46.80
2019-04-25T17:35:20.016Z,47.30
2019-04-25T17:37:52.681Z,47.90
2019-04-25T17:40:25.955Z,48.20
2019-04-25T17:42:55.256Z,48.70
2019-04-25T17:45:28.621Z,49.20
2019-04-25T17:47:58.226Z,49.50
2019-04-25T17:50:27.944Z,49.80
2019-04-25T17:52:57.252Z,50.20
2019-04-25T17:55:26.532Z,50.40
2019-04-25T17:57:55.832Z,50.80
2019-04-25T18:00:33.929Z,51.20
2019-04-25T18:03:03.872Z,51.30
2019-04-25T18:05:34.171Z,51.60
2019-04-25T18:08:04.788Z,52.00
2019-04-25T18:10:34.410Z,52.40
2019-04-25T18:13:05.401Z,52.70
2019-04-25T18:15:51.310Z,53.00
2019-04-25T18:18:39.154Z,53.50
2019-04-25T18:21:08.474Z,53.80
2019-04-25T18:24:08.851Z,53.40
2019-04-25T18:26:45.915Z,53.50
2019-04-25T18:29:15.888Z,54.00
2019-04-25T18:31:45.187Z,53.50
2019-04-25T18:34:27.934Z,53.30
2019-04-25T18:37:18.963Z,53.60
2019-04-25T18:40:10.585Z,53.90
2019-04-25T18:43:08.312Z,54.10
2019-04-25T18:45:40.244Z,54.50
2019-04-25T18:48:09.578Z,54.80
2019-04-25T18:50:39.024Z,54.90
2019-04-25T18:53:37.744Z,55.20
2019-04-25T18:56:17.463Z,55.00
2019-04-25T18:59:09.498Z,55.10
2019-04-25T19:02:07.166Z,55.80
2019-04-25T19:04:47.067Z,56.80
2019-04-25T19:07:22.465Z,56.70
2019-04-25T19:09:48.378Z,56.80
2019-04-25T19:12:17.668Z,57.10
2019-04-25T19:14:47.376Z,57.50
2019-04-25T19:17:17.058Z,58.40
2019-04-25T19:19:46.370Z,59.10
2019-04-25T19:22:15.774Z,59.20
2019-04-25T19:24:47.185Z,59.90
2019-04-25T19:27:23.497Z,60.40
2019-04-25T19:29:47.329Z,59.80
2019-04-25T19:32:16.813Z,60.90
2019-04-25T19:34:46.689Z,61.20
2019-04-25T19:37:16.340Z,62.60
2019-04-25T19:39:51.883Z,63.80
2019-04-25T19:42:30.867Z,64.40
2019-04-25T19:45:09.533Z,62.60
2019-04-25T19:47:41.360Z,63.70
2019-04-25T19:50:10.885Z,63.50
2019-04-25T19:52:41.335Z,63.10
2019-04-25T19:55:11.434Z,63.60
2019-04-25T19:57:42.330Z,62.10
2019-04-25T20:00:12.417Z,62.60
2019-04-25T20:02:50.772Z,63.40
2019-04-25T20:05:25.467Z,64.30
2019-04-25T20:07:59.504Z,64.50
2019-04-25T20:10:34.724Z,65.00
2019-04-25T20:13:04.340Z,66.10
2019-04-25T20:15:33.629Z,66.30
2019-04-25T20:18:03.187Z,66.60
2019-04-25T20:20:32.451Z,67.00
2019-04-25T20:23:02.225Z,65.80
2019-04-25T20:25:31.863Z,66.20
2019-04-25T20:28:01.408Z,64.40
2019-04-25T20:30:30.856Z,65.40
2019-04-25T20:33:00.406Z,67.00
2019-04-25T20:35:30.281Z,67.10
2019-04-25T20:37:59.884Z,69.10
2019-04-25T20:40:29.256Z,68.50
2019-04-25T20:42:58.811Z,68.50
2019-04-25T20:45:28.444Z,69.60
2019-04-25T20:47:58.047Z,68.70
2019-04-25T20:50:27.599Z,68.70
2019-04-25T20:52:57.381Z,68.60
2019-04-25T20:55:26.773Z,68.10
2019-04-25T20:57:56.327Z,67.10
2019-04-25T21:00:47.101Z,66.30
2019-04-25T21:03:17.668Z,65.80
2019-04-25T21:05:49.634Z,66.00
2019-04-25T21:08:19.345Z,65.90
2019-04-25T21:10:50.461Z,65.60
2019-04-25T21:13:26.549Z,66.20
2019-04-25T21:16:04.976Z,68.50
2019-04-25T21:18:40.672Z,71.70
2019-04-25T21:21:10.503Z,72.50
2019-04-25T21:23:40.137Z,73.20
2019-04-25T21:26:09.411Z,74.00
2019-04-25T21:28:38.774Z,74.30
2019-04-25T21:31:08.128Z,75.00
2019-04-25T21:33:37.480Z,74.00
2019-04-25T21:36:07.015Z,75.20
2019-04-25T21:38:36.841Z,75.60
2019-04-25T21:41:31.519Z,76.00
2019-04-25T21:44:03.819Z,75.40
2019-04-25T21:46:33.612Z,75.00
2019-04-25T21:49:03.314Z,74.30
2019-04-25T21:51:33.243Z,73.30
2019-04-25T21:54:03.720Z,72.30
2019-04-25T21:56:33.567Z,72.80
2019-04-25T21:59:02.838Z,72.90
2019-04-25T22:01:39.096Z,73.10
2019-04-25T22:04:08.676Z,73.20
2019-04-25T22:06:38.993Z,73.70
2019-04-25T22:09:10.965Z,73.80
2019-04-25T22:11:40.343Z,74.00
2019-04-25T22:14:10.877Z,74.10
2019-04-25T22:16:40.896Z,74.10
2019-04-25T22:19:11.455Z,74.20
2019-04-25T22:21:41.137Z,73.60
2019-04-25T22:24:14.802Z,73.60
2019-04-25T22:26:41.797Z,73.70
2019-04-25T22:29:11.450Z,73.70
2019-04-25T22:32:06.106Z,73.80
2019-04-25T22:34:52.132Z,73.80
2019-04-25T22:37:15.153Z,75.40
2019-04-25T22:39:45.240Z,75.20
2019-04-25T22:42:14.853Z,76.70
2019-04-25T22:44:44.155Z,78.00
2019-04-25T22:47:13.851Z,78.40
2019-04-25T22:49:43.876Z,78.80
2019-04-25T22:52:13.824Z,79.10
2019-04-25T22:54:43.726Z,79.30
2019-04-25T22:57:13.636Z,79.50
2019-04-25T22:59:43.499Z,79.50
2019-04-25T23:02:21.749Z,79.50
2019-04-25T23:05:09.246Z,79.30
2019-04-25T23:07:30.363Z,79.60
2019-04-25T23:10:00.185Z,80.10
2019-04-25T23:12:29.768Z,80.60
2019-04-25T23:14:59.083Z,81.40
2019-04-25T23:17:28.438Z,81.30
2019-04-25T23:19:58.039Z,81.20
2019-04-25T23:22:27.902Z,81.40
2019-04-25T23:25:03.465Z,81.70
2019-04-25T23:27:49.274Z,81.90
2019-04-25T23:30:20.755Z,82.10
2019-04-25T23:32:50.107Z,82.40
2019-04-25T23:35:27.988Z,81.60
2019-04-25T23:37:53.812Z,81.40
2019-04-25T23:40:23.107Z,81.30
2019-04-25T23:42:55.721Z,80.90
2019-04-25T23:45:27.183Z,80.70
2019-04-25T23:47:56.971Z,80.70
2019-04-25T23:50:28.726Z,80.50
2019-04-25T23:52:58.032Z,80.00
2019-04-25T23:55:27.992Z,79.40
2019-04-25T23:57:59.408Z,79.00
